createdAt,value
2019-02-21T00:00:54.793Z,8.64
2019-02-21T00:03:23.213Z,8.60
2019-02-21T00:05:51.512Z,8.54
2019-02-21T00:08:19.858Z,8.51
2019-02-21T00:10:48.160Z,8.48
2019-02-21T00:13:16.461Z,8.42
2019-02-21T00:15:44.749Z,8.39
2019-02-21T00:18:13.365Z,8.34
2019-02-21T00:20:41.658Z,8.29
2019-02-21T00:23:09.961Z,8.25
2019-02-21T00:25:38.606Z,8.21
2019-02-21T00:28:06.908Z,8.16
2019-02-21T00:30:35.681Z,8.10
2019-02-21T00:33:03.970Z,8.03
2019-02-21T00:35:32.295Z,7.97
2019-02-21T00:38:00.590Z,7.89
2019-02-21T00:40:28.937Z,7.81
2019-02-21T00:42:57.238Z,7.77
2019-02-21T00:45:25.553Z,7.75
2019-02-21T00:47:54.097Z,7.72
2019-02-21T00:50:22.412Z,7.70
2019-02-21T00:52:50.701Z,7.66
2019-02-21T00:55:19.352Z,7.62
2019-02-21T00:57:47.641Z,7.56
2019-02-21T01:00:15.952Z,7.45
2019-02-21T01:02:44.250Z,7.38
2019-02-21T01:05:12.538Z,7.34
2019-02-21T01:07:41.138Z,7.35
2019-02-21T01:10:09.509Z,7.38
2019-02-21T01:12:37.818Z,7.42
2019-02-21T01:15:08.690Z,7.43
2019-02-21T01:17:36.999Z,7.43
2019-02-21T01:20:06.266Z,7.42
2019-02-21T01:22:34.902Z,7.46
2019-02-21T01:25:03.192Z,7.47
2019-02-21T01:27:31.851Z,7.45
2019-02-21T01:30:00.258Z,7.42
2019-02-21T01:32:29.119Z,7.38
2019-02-21T01:34:57.440Z,7.34
2019-02-21T01:37:25.808Z,7.29
2019-02-21T01:39:54.473Z,7.28
2019-02-21T01:42:22.871Z,7.27
2019-02-21T01:44:51.180Z,7.23
2019-02-21T01:47:19.907Z,7.20
2019-02-21T01:49:48.222Z,7.17
2019-02-21T01:52:16.547Z,7.09
2019-02-21T01:54:44.863Z,7.05
2019-02-21T01:57:13.423Z,7.03
2019-02-21T01:59:41.836Z,6.99
2019-02-21T02:02:10.203Z,6.94
2019-02-21T02:04:38.601Z,6.86
2019-02-21T02:07:06.906Z,6.79
2019-02-21T02:09:35.524Z,6.75
2019-02-21T02:12:03.818Z,6.70
2019-02-21T02:14:32.233Z,6.69
2019-02-21T02:17:00.524Z,6.68
2019-02-21T02:19:28.831Z,6.65
2019-02-21T02:21:57.409Z,6.60
2019-02-21T02:24:25.702Z,6.55
2019-02-21T02:26:54.376Z,6.50
2019-02-21T02:29:22.956Z,6.48
2019-02-21T02:31:51.269Z,6.46
2019-02-21T02:34:19.600Z,6.46
2019-02-21T02:36:47.893Z,6.46
2019-02-21T02:39:16.197Z,6.44
2019-02-21T02:41:44.502Z,6.44
2019-02-21T02:44:12.803Z,6.43
2019-02-21T02:46:41.240Z,6.48
2019-02-21T02:49:09.491Z,6.51
2019-02-21T02:51:37.829Z,6.55
2019-02-21T02:54:06.435Z,6.58
2019-02-21T02:56:34.744Z,6.59
2019-02-21T02:59:03.108Z,6.60
2019-02-21T03:01:35.102Z,6.59
2019-02-21T03:04:02.356Z,6.60
2019-02-21T03:06:30.907Z,6.63
2019-02-21T03:08:59.206Z,6.69
2019-02-21T03:11:27.516Z,6.73
2019-02-21T03:13:55.837Z,6.77
2019-02-21T03:16:24.148Z,6.82
2019-02-21T03:18:52.824Z,6.85
2019-02-21T03:21:21.391Z,6.90
2019-02-21T03:23:49.684Z,6.92
2019-02-21T03:26:17.992Z,6.97
2019-02-21T03:28:46.292Z,7.05
2019-02-21T03:31:14.619Z,7.13
2019-02-21T03:33:42.914Z,7.20
2019-02-21T03:36:11.232Z,7.26
2019-02-21T03:38:39.765Z,7.31
2019-02-21T03:41:08.091Z,7.32
2019-02-21T03:43:36.387Z,7.33
2019-02-21T03:46:04.717Z,7.34
2019-02-21T03:48:33.013Z,7.33
2019-02-21T03:51:01.315Z,7.33
2019-02-21T03:53:29.715Z,7.30
2019-02-21T03:55:58.040Z,7.28
2019-02-21T03:58:26.702Z,7.21
2019-02-21T04:00:55.619Z,7.14
2019-02-21T04:03:23.927Z,7.07
2019-02-21T04:05:52.233Z,7.00
2019-02-21T04:08:20.534Z,6.98
2019-02-21T04:10:48.856Z,6.91
2019-02-21T04:13:17.156Z,6.86
2019-02-21T04:15:45.472Z,6.80
2019-02-21T04:18:13.770Z,6.77
2019-02-21T04:20:42.070Z,6.70
2019-02-21T04:23:10.409Z,6.69
2019-02-21T04:25:38.695Z,6.69
2019-02-21T04:28:08.100Z,6.72
2019-02-21T04:30:36.405Z,6.76
2019-02-21T04:33:04.969Z,6.80
2019-02-21T04:35:33.368Z,6.84
2019-02-21T04:38:02.028Z,6.86
2019-02-21T04:40:30.338Z,6.82
2019-02-21T04:42:58.978Z,6.82
2019-02-21T04:45:27.280Z,6.80
2019-02-21T04:47:55.692Z,6.79
2019-02-21T04:50:23.994Z,6.77
2019-02-21T04:52:52.385Z,6.75
2019-02-21T04:55:20.691Z,6.72
2019-02-21T04:57:49.000Z,6.67
2019-02-21T05:00:17.308Z,6.70
2019-02-21T05:02:46.548Z,6.68
2019-02-21T05:05:14.864Z,6.71
2019-02-21T05:07:43.172Z,6.75
2019-02-21T05:10:11.505Z,6.77
2019-02-21T05:12:39.809Z,6.79
2019-02-21T05:15:08.124Z,6.84
2019-02-21T05:17:36.437Z,6.86
2019-02-21T05:20:05.723Z,6.89
2019-02-21T05:22:34.022Z,6.92
2019-02-21T05:25:02.342Z,6.96
2019-02-21T05:27:32.277Z,6.98
2019-02-21T05:30:00.620Z,6.99
2019-02-21T05:32:41.069Z,7.01
2019-02-21T05:35:05.218Z,7.04
2019-02-21T05:37:35.185Z,7.01
2019-02-21T05:40:05.143Z,6.99
2019-02-21T05:42:51.525Z,6.98
2019-02-21T05:45:24.284Z,6.97
2019-02-21T05:47:54.236Z,6.95
2019-02-21T05:50:24.526Z,6.96
2019-02-21T05:53:03.239Z,6.96
2019-02-21T05:55:49.767Z,6.94
2019-02-21T05:58:28.997Z,6.95
2019-02-21T06:01:08.288Z,6.96
2019-02-21T06:03:38.224Z,6.95
2019-02-21T06:06:10.865Z,6.93
2019-02-21T06:08:41.149Z,6.91
2019-02-21T06:11:23.058Z,6.85
2019-02-21T06:13:52.969Z,6.79
2019-02-21T06:16:40.773Z,6.73
2019-02-21T06:19:10.887Z,6.69
2019-02-21T06:21:41.128Z,6.63
2019-02-21T06:24:27.424Z,6.57
2019-02-21T06:26:57.374Z,6.53
2019-02-21T06:29:27.325Z,6.48
2019-02-21T06:31:55.621Z,6.47
2019-02-21T06:34:23.946Z,6.48
2019-02-21T06:36:52.237Z,6.49
2019-02-21T06:39:20.552Z,6.45
2019-02-21T06:41:59.065Z,6.42
2019-02-21T06:44:19.248Z,6.39
2019-02-21T06:46:47.859Z,6.38
2019-02-21T06:49:16.179Z,6.38
2019-02-21T06:51:44.470Z,6.41
2019-02-21T06:54:12.779Z,6.44
2019-02-21T06:56:41.086Z,6.43
2019-02-21T06:59:09.763Z,6.41
2019-02-21T07:01:38.431Z,6.44
2019-02-21T07:04:07.012Z,6.50
2019-02-21T07:06:35.315Z,6.55
2019-02-21T07:09:04.601Z,6.61
2019-02-21T07:11:32.996Z,6.69
2019-02-21T07:14:01.292Z,6.79
2019-02-21T07:16:29.615Z,6.87
2019-02-21T07:18:57.913Z,6.92
2019-02-21T07:21:26.327Z,6.95
2019-02-21T07:23:54.645Z,7.01
2019-02-21T07:26:23.940Z,7.04
2019-02-21T07:28:52.233Z,7.10
2019-02-21T07:31:28.948Z,7.20
2019-02-21T07:33:50.669Z,7.27
2019-02-21T07:36:18.963Z,7.36
2019-02-21T07:38:47.801Z,7.42
2019-02-21T07:41:18.542Z,7.45
2019-02-21T07:43:46.395Z,7.48
2019-02-21T07:46:14.718Z,7.51
2019-02-21T07:48:43.023Z,7.52
2019-02-21T07:51:13.382Z,7.54
2019-02-21T07:53:41.649Z,7.57
2019-02-21T07:56:09.970Z,7.66
2019-02-21T07:58:39.658Z,7.79
2019-02-21T08:01:08.098Z,7.92
2019-02-21T08:03:44.497Z,8.09
2019-02-21T08:06:07.021Z,8.24
2019-02-21T08:08:35.336Z,8.37
2019-02-21T08:11:03.618Z,8.59
2019-02-21T08:13:31.923Z,8.78
2019-02-21T08:16:00.287Z,8.92
2019-02-21T08:18:28.584Z,8.98
2019-02-21T08:20:57.036Z,9.04
2019-02-21T08:23:25.384Z,9.18
2019-02-21T08:25:54.058Z,9.32
2019-02-21T08:28:22.464Z,9.43
2019-02-21T08:30:50.772Z,9.51
2019-02-21T08:33:20.699Z,9.49
2019-02-21T08:35:49.015Z,9.50
2019-02-21T08:38:17.308Z,9.51
2019-02-21T08:40:45.601Z,9.55
2019-02-21T08:43:13.975Z,9.61
2019-02-21T08:45:42.289Z,9.61
2019-02-21T08:48:13.291Z,9.62
2019-02-21T08:50:40.925Z,9.69
2019-02-21T08:53:09.408Z,9.79
2019-02-21T08:55:40.374Z,9.86
2019-02-21T08:58:08.143Z,9.93
2019-02-21T09:00:36.428Z,10.03
2019-02-21T09:03:04.919Z,10.13
2019-02-21T09:05:33.253Z,10.24
2019-02-21T09:08:01.577Z,10.33
2019-02-21T09:10:29.877Z,10.39
2019-02-21T09:12:58.199Z,10.39
2019-02-21T09:15:26.853Z,10.34
2019-02-21T09:17:55.189Z,10.26
2019-02-21T09:20:23.499Z,10.18
2019-02-21T09:22:51.810Z,10.17
2019-02-21T09:25:20.117Z,10.21
2019-02-21T09:27:48.735Z,10.33
2019-02-21T09:30:18.581Z,10.52
2019-02-21T09:32:47.240Z,10.72
2019-02-21T09:35:15.579Z,10.88
2019-02-21T09:37:43.932Z,10.93
2019-02-21T09:40:14.699Z,10.91
2019-02-21T09:42:43.034Z,10.87
2019-02-21T09:45:16.290Z,10.87
2019-02-21T09:47:44.583Z,11.05
2019-02-21T09:50:13.141Z,11.19
2019-02-21T09:52:41.446Z,11.19
2019-02-21T09:55:12.456Z,11.17
2019-02-21T09:57:40.766Z,11.11
2019-02-21T10:00:12.256Z,11.00
2019-02-21T10:02:42.088Z,10.97
2019-02-21T10:05:10.816Z,10.99
2019-02-21T10:07:39.157Z,11.15
2019-02-21T10:10:10.792Z,11.31
2019-02-21T10:12:39.133Z,11.44
2019-02-21T10:15:09.882Z,11.42
2019-02-21T10:17:38.200Z,11.45
2019-02-21T10:20:20.945Z,11.37
2019-02-21T10:22:49.656Z,11.21
2019-02-21T10:25:23.168Z,11.18
2019-02-21T10:27:51.010Z,11.19
2019-02-21T10:30:21.429Z,11.17
2019-02-21T10:32:50.119Z,11.14
2019-02-21T10:35:18.544Z,11.11
2019-02-21T10:37:46.909Z,11.15
2019-02-21T10:40:15.960Z,11.25
2019-02-21T10:42:44.557Z,11.28
2019-02-21T10:45:18.012Z,11.18
2019-02-21T10:47:46.302Z,11.09
2019-02-21T10:50:19.800Z,11.04
2019-02-21T10:52:48.698Z,11.08
2019-02-21T10:55:17.859Z,11.28
2019-02-21T10:57:46.344Z,11.51
2019-02-21T11:00:23.063Z,11.58
2019-02-21T11:02:51.444Z,11.69
2019-02-21T11:05:19.760Z,11.85
2019-02-21T11:07:48.068Z,12.02
2019-02-21T11:10:20.053Z,12.13
2019-02-21T11:12:48.389Z,12.22
2019-02-21T11:15:18.725Z,12.21
2019-02-21T11:17:47.059Z,12.23
2019-02-21T11:20:19.077Z,12.27
2019-02-21T11:22:47.679Z,12.39
2019-02-21T11:25:16.000Z,12.40
2019-02-21T11:27:44.385Z,12.44
2019-02-21T11:30:17.616Z,12.39
2019-02-21T11:32:46.014Z,12.37
2019-02-21T11:35:14.628Z,12.29
2019-02-21T11:37:46.764Z,12.32
2019-02-21T11:40:15.650Z,12.38
2019-02-21T11:42:44.611Z,12.46
2019-02-21T11:45:15.214Z,12.55
2019-02-21T11:47:44.211Z,12.67
2019-02-21T11:50:17.914Z,12.74
2019-02-21T11:52:46.241Z,12.78
2019-02-21T11:55:22.471Z,12.72
2019-02-21T11:57:50.986Z,12.83
2019-02-21T12:00:24.626Z,12.97
2019-02-21T12:02:53.185Z,13.07
2019-02-21T12:05:30.366Z,13.02
2019-02-21T12:07:51.617Z,13.02
2019-02-21T12:10:19.944Z,12.93
2019-02-21T12:12:48.253Z,12.89
2019-02-21T12:15:17.529Z,12.90
2019-02-21T12:17:45.857Z,12.90
2019-02-21T12:20:16.209Z,12.80
2019-02-21T12:22:44.526Z,12.71
2019-02-21T12:25:15.071Z,12.67
2019-02-21T12:27:43.369Z,12.68
2019-02-21T12:30:18.751Z,12.69
2019-02-21T12:32:47.124Z,12.84
2019-02-21T12:35:15.527Z,13.06
2019-02-21T12:37:43.831Z,13.18
2019-02-21T12:40:22.585Z,13.32
2019-02-21T12:42:50.887Z,13.40
2019-02-21T12:45:26.393Z,13.44
2019-02-21T12:47:55.022Z,13.47
2019-02-21T12:50:23.335Z,13.43
2019-02-21T12:52:51.658Z,13.39
2019-02-21T12:55:28.224Z,13.34
2019-02-21T12:57:50.011Z,13.21
2019-02-21T13:00:22.351Z,13.20
2019-02-21T13:02:50.681Z,13.20
2019-02-21T13:05:19.061Z,13.31
2019-02-21T13:07:47.382Z,13.50
2019-02-21T13:10:21.856Z,13.54
2019-02-21T13:12:50.181Z,13.61
2019-02-21T13:15:18.481Z,13.68
2019-02-21T13:17:46.829Z,13.68
2019-02-21T13:20:15.468Z,13.67
2019-02-21T13:22:43.760Z,13.65
2019-02-21T13:25:14.613Z,13.59
2019-02-21T13:27:42.913Z,13.55
2019-02-21T13:30:18.793Z,13.46
2019-02-21T13:32:47.102Z,13.45
2019-02-21T13:35:15.423Z,13.44
2019-02-21T13:37:43.818Z,13.48
2019-02-21T13:40:14.852Z,13.49
2019-02-21T13:42:43.144Z,13.52
2019-02-21T13:45:18.013Z,13.48
2019-02-21T13:47:46.744Z,13.41
2019-02-21T13:50:23.721Z,13.40
2019-02-21T13:52:51.409Z,13.45
2019-02-21T13:55:19.787Z,13.47
2019-02-21T13:57:48.103Z,13.46
2019-02-21T14:00:24.070Z,13.47
2019-02-21T14:02:52.396Z,13.50
2019-02-21T14:05:20.699Z,13.51
2019-02-21T14:07:49.077Z,13.42
2019-02-21T14:10:17.543Z,13.38
2019-02-21T14:12:46.029Z,13.34
2019-02-21T14:15:17.527Z,13.29
2019-02-21T14:17:46.758Z,13.36
2019-02-21T14:20:15.464Z,13.40
2019-02-21T14:22:43.787Z,13.35
2019-02-21T14:25:12.497Z,13.30
2019-02-21T14:27:40.802Z,13.33
2019-02-21T14:30:18.174Z,13.38
2019-02-21T14:32:46.483Z,13.43
2019-02-21T14:35:15.568Z,13.45
2019-02-21T14:37:43.946Z,13.42
2019-02-21T14:40:13.643Z,13.43
2019-02-21T14:42:41.959Z,13.46
2019-02-21T14:45:13.660Z,13.45
2019-02-21T14:47:42.023Z,13.42
2019-02-21T14:50:11.881Z,13.43
2019-02-21T14:52:40.337Z,13.38
2019-02-21T14:55:11.016Z,13.40
2019-02-21T14:57:41.217Z,13.43
2019-02-21T15:00:23.676Z,13.41
2019-02-21T15:02:51.977Z,13.38
2019-02-21T15:05:20.786Z,13.31
2019-02-21T15:07:49.171Z,13.25
2019-02-21T15:10:17.752Z,13.20
2019-02-21T15:12:46.383Z,13.16
2019-02-21T15:15:25.503Z,13.15
2019-02-21T15:17:53.845Z,13.13
2019-02-21T15:20:22.500Z,13.05
2019-02-21T15:22:50.789Z,13.06
2019-02-21T15:25:19.109Z,13.05
2019-02-21T15:27:47.429Z,12.98
2019-02-21T15:30:21.525Z,12.95
2019-02-21T15:32:50.021Z,12.91
2019-02-21T15:35:19.507Z,12.87
2019-02-21T15:37:48.233Z,12.85
2019-02-21T15:40:16.582Z,12.86
2019-02-21T15:42:45.159Z,12.85
2019-02-21T15:45:23.099Z,12.85
2019-02-21T15:47:46.472Z,12.87
2019-02-21T15:50:15.393Z,12.81
2019-02-21T15:52:45.037Z,12.73
2019-02-21T15:55:15.593Z,12.69
2019-02-21T15:57:43.953Z,12.69
2019-02-21T16:00:15.281Z,12.67
2019-02-21T16:02:43.591Z,12.65
2019-02-21T16:05:11.957Z,12.60
2019-02-21T16:07:40.278Z,12.61
2019-02-21T16:10:19.795Z,12.60
2019-02-21T16:12:48.662Z,12.58
2019-02-21T16:15:17.141Z,12.53
2019-02-21T16:17:45.488Z,12.54
2019-02-21T16:20:16.233Z,12.51
2019-02-21T16:22:44.837Z,12.43
2019-02-21T16:25:22.269Z,12.38
2019-02-21T16:27:50.608Z,12.33
2019-02-21T16:30:18.906Z,12.34
2019-02-21T16:32:47.312Z,12.35
2019-02-21T16:35:15.653Z,12.37
2019-02-21T16:37:44.302Z,12.37
2019-02-21T16:40:14.958Z,12.36
2019-02-21T16:42:43.304Z,12.35
2019-02-21T16:45:13.854Z,12.34
2019-02-21T16:47:42.250Z,12.30
2019-02-21T16:50:14.891Z,12.24
2019-02-21T16:52:43.479Z,12.22
2019-02-21T16:55:21.821Z,12.22
2019-02-21T16:57:50.151Z,12.21
2019-02-21T17:00:21.127Z,12.18
2019-02-21T17:02:52.130Z,12.13
2019-02-21T17:05:20.582Z,12.13
2019-02-21T17:07:49.213Z,12.12
2019-02-21T17:10:18.240Z,12.11
2019-02-21T17:12:46.531Z,12.12
2019-02-21T17:15:18.508Z,12.11
2019-02-21T17:17:46.800Z,12.10
2019-02-21T17:20:23.161Z,12.11
2019-02-21T17:22:51.461Z,12.11
2019-02-21T17:25:19.801Z,12.09
2019-02-21T17:27:49.723Z,12.09
2019-02-21T17:30:18.605Z,12.05
2019-02-21T17:32:47.253Z,12.07
2019-02-21T17:35:16.009Z,12.05
2019-02-21T17:37:44.710Z,12.01
2019-02-21T17:40:24.232Z,12.00
2019-02-21T17:42:52.835Z,11.98
2019-02-21T17:45:21.608Z,11.98
2019-02-21T17:47:49.917Z,11.99
2019-02-21T17:50:19.167Z,11.98
2019-02-21T17:52:47.989Z,11.96
2019-02-21T17:55:17.094Z,11.96
2019-02-21T17:57:45.419Z,11.96
2019-02-21T18:00:21.018Z,11.98
2019-02-21T18:02:49.341Z,11.97
2019-02-21T18:05:17.979Z,11.98
2019-02-21T18:07:46.261Z,11.98
2019-02-21T18:10:15.905Z,11.97
2019-02-21T18:12:44.355Z,11.97
2019-02-21T18:15:14.326Z,11.97
2019-02-21T18:17:42.627Z,11.95
2019-02-21T18:20:12.947Z,11.97
2019-02-21T18:22:41.337Z,11.98
2019-02-21T18:25:18.828Z,11.95
2019-02-21T18:27:47.133Z,11.94
2019-02-21T18:30:17.249Z,11.94
2019-02-21T18:32:45.642Z,11.92
2019-02-21T18:35:14.237Z,11.91
2019-02-21T18:37:47.334Z,11.89
2019-02-21T18:40:20.644Z,11.91
2019-02-21T18:42:48.459Z,11.93
2019-02-21T18:45:16.781Z,11.91
2019-02-21T18:47:45.078Z,11.94
2019-02-21T18:50:14.516Z,11.95
2019-02-21T18:52:42.839Z,11.95
2019-02-21T18:55:11.314Z,11.95
2019-02-21T18:57:39.714Z,11.95
2019-02-21T19:00:11.076Z,11.93
2019-02-21T19:02:39.390Z,11.93
2019-02-21T19:05:08.757Z,11.93
2019-02-21T19:07:37.063Z,11.93
2019-02-21T19:10:08.780Z,11.90
2019-02-21T19:12:37.109Z,11.87
2019-02-21T19:15:07.460Z,11.83
2019-02-21T19:17:35.790Z,11.81
2019-02-21T19:20:06.217Z,11.78
2019-02-21T19:22:34.785Z,11.76
2019-02-21T19:25:03.376Z,11.73
2019-02-21T19:27:37.039Z,11.71
2019-02-21T19:30:02.272Z,11.67
2019-02-21T19:32:30.584Z,11.61
2019-02-21T19:34:59.226Z,11.61
2019-02-21T19:37:27.787Z,11.59
2019-02-21T19:39:56.424Z,11.56
2019-02-21T19:42:25.079Z,11.48
2019-02-21T19:44:53.426Z,11.41
2019-02-21T19:47:21.716Z,11.38
2019-02-21T19:49:50.021Z,11.41
2019-02-21T19:52:18.420Z,11.42
2019-02-21T19:54:46.986Z,11.40
2019-02-21T19:57:15.302Z,11.41
2019-02-21T19:59:43.765Z,11.40
2019-02-21T20:02:12.093Z,11.38
2019-02-21T20:04:40.709Z,11.37
2019-02-21T20:07:09.034Z,11.33
2019-02-21T20:09:37.654Z,11.29
2019-02-21T20:12:05.983Z,11.26
2019-02-21T20:14:34.335Z,11.22
2019-02-21T20:17:02.665Z,11.22
2019-02-21T20:19:30.965Z,11.22
2019-02-21T20:21:59.554Z,11.24
2019-02-21T20:24:27.877Z,11.27
2019-02-21T20:26:56.184Z,11.27
2019-02-21T20:29:24.794Z,11.26
2019-02-21T20:31:53.199Z,11.20
2019-02-21T20:34:21.533Z,11.20
2019-02-21T20:36:51.391Z,11.16
2019-02-21T20:39:19.943Z,11.15
2019-02-21T20:41:48.257Z,11.16
2019-02-21T20:44:16.572Z,11.18
2019-02-21T20:46:44.912Z,11.18
2019-02-21T20:49:13.562Z,11.11
2019-02-21T20:51:41.864Z,11.10
2019-02-21T20:54:12.886Z,11.10
2019-02-21T20:56:40.563Z,11.14
2019-02-21T20:59:08.878Z,11.14
2019-02-21T21:01:37.505Z,11.13
2019-02-21T21:04:05.800Z,11.10
2019-02-21T21:06:34.475Z,11.07
2019-02-21T21:09:04.534Z,11.03
2019-02-21T21:11:32.847Z,11.03
2019-02-21T21:14:01.150Z,11.00
2019-02-21T21:16:29.549Z,10.95
2019-02-21T21:18:57.857Z,10.95
2019-02-21T21:21:26.182Z,10.99
2019-02-21T21:23:54.493Z,10.99
2019-02-21T21:26:22.817Z,10.95
2019-02-21T21:28:51.155Z,10.95
2019-02-21T21:31:19.804Z,10.95
2019-02-21T21:33:48.098Z,10.93
2019-02-21T21:36:16.492Z,10.86
2019-02-21T21:38:53.603Z,10.86
2019-02-21T21:41:14.907Z,10.84
2019-02-21T21:43:43.220Z,10.87
2019-02-21T21:46:11.545Z,10.88
2019-02-21T21:48:39.855Z,10.88
2019-02-21T21:51:08.153Z,10.89
2019-02-21T21:53:36.577Z,10.82
2019-02-21T21:56:04.956Z,10.79
2019-02-21T21:58:33.266Z,10.82
2019-02-21T22:01:01.561Z,10.82
2019-02-21T22:03:29.886Z,10.82
2019-02-21T22:05:58.190Z,10.80
2019-02-21T22:08:26.808Z,10.76
2019-02-21T22:10:55.115Z,10.72
2019-02-21T22:13:23.448Z,10.72
2019-02-21T22:15:51.760Z,10.71
2019-02-21T22:18:20.064Z,10.74
2019-02-21T22:20:48.395Z,10.76
2019-02-21T22:23:16.706Z,10.74
2019-02-21T22:25:45.025Z,10.73
2019-02-21T22:28:13.345Z,10.72
2019-02-21T22:30:41.664Z,10.72
2019-02-21T22:33:09.978Z,10.72
2019-02-21T22:35:38.399Z,10.70
2019-02-21T22:38:06.717Z,10.67
2019-02-21T22:40:35.042Z,10.65
2019-02-21T22:43:03.356Z,10.69
2019-02-21T22:45:31.699Z,10.72
2019-02-21T22:48:00.011Z,10.74
2019-02-21T22:50:28.624Z,10.76
2019-02-21T22:52:56.953Z,10.75
2019-02-21T22:55:25.263Z,10.77
2019-02-21T22:57:53.881Z,10.76
2019-02-21T23:00:38.511Z,10.77
2019-02-21T23:03:09.232Z,10.77
2019-02-21T23:05:49.447Z,10.76
2019-02-21T23:08:42.036Z,10.74
2019-02-21T23:11:10.695Z,10.76
2019-02-21T23:13:39.531Z,10.77
2019-02-21T23:16:07.937Z,10.76
2019-02-21T23:18:36.289Z,10.75
2019-02-21T23:21:04.842Z,10.73
2019-02-21T23:23:33.165Z,10.72
2019-02-21T23:26:01.723Z,10.70
2019-02-21T23:28:30.035Z,10.69
2019-02-21T23:30:58.703Z,10.70
2019-02-21T23:33:28.113Z,10.71
2019-02-21T23:35:56.396Z,10.70
2019-02-21T23:38:24.707Z,10.69
2019-02-21T23:40:53.008Z,10.71
2019-02-21T23:43:21.304Z,10.68
2019-02-21T23:45:49.625Z,10.67
2019-02-21T23:48:17.940Z,10.65
2019-02-21T23:50:46.265Z,10.65
2019-02-21T23:53:14.595Z,10.64
2019-02-21T23:55:43.203Z,10.67
2019-02-21T23:58:11.510Z,10.67
